Texas Shootout - TRAINING

Station: GREENWOOD, TX - T Race

Distance: 8 Miles

Release: 11-Oct-2021 08:15

Weather Release:    Arrival:

Wind at Release:     Wind at Arrival:

Temp at Release: °    Temp at Arrival: °

Lofts: 63

Birds: 338

Clocked: 335

Good Luck to Everyone!
Drops Pos Breeder Pigeon Name Color Sex Ent Arrival Speed To Win Elg Pd
1 Arnel Vega - CA 0205-AU21-ARNE BC H 1 08:21:25.40 2192.008 00:00:00 Yes
2 Kibria Rpl - TX 0831-AU21-WWC 384 X 109 BB C 1 08:24:36.50 1465.395 00:03:11 Yes
3 English Syndicate - UK 19456-GB21-E BC C 1 09:05:21.70 279.578 00:43:56 Yes
4 Pacos Lofts - CA 0163-AU21-PACO BB C 1 09:06:09.40 275.233 00:44:44 Yes
5 Dea Loft - AZ 0035-AU21-DEA BB C 1 09:33:46.30 178.744 01:12:21 Yes
6 Wood Loft - TX 0772-AU21-DENT BC C 1 09:33:47.50 178.699 01:12:22 Yes
7 Hillbilly Loft - TX 2260-AU21-AA 2560 x 63503 BB H 1 09:33:50.90 178.571 01:12:25 Yes
8 Any Given Day Loft - TX 21153-AU21-ANYG BC H 1 09:33:51.20 178.559 01:12:26 Yes
9 Elton Dinga - TX 2324-AU21-UTEN Black Power 1905 x 12089 BB C 1 09:33:51.60 178.544 01:12:26 Yes
10 Nestle Loft - TX 30250-AU21-AA PNSP H 1 09:33:53.00 178.491 01:12:28 Yes
11 Hillbilly Loft - TX 2253-AU21-AA 13846 X 13728 Golden Pr BC H 2 09:33:53.60 178.469 01:12:28 Yes
11 Ledet-Gutrz - LA 21549-AU21-LEDE BCWF H 1 09:33:53.60 178.469 01:12:28 Yes
13 Any Given Day Loft - TX 21159-AU21-ANYG DCPD H 2 09:33:54.10 178.450 01:12:29 Yes
14 Timberline Speed Loft - TX 0142-AU21-HALE BB C 1 09:33:54.40 178.439 01:12:29 Yes
14 Ledet-Gutrz - LA 21193-AU21-LEDE BC H 2 09:33:54.40 178.439 01:12:29 Yes
16 Brown & Evans - TX 0977-AU21-WF BB H 1 09:33:54.50 178.435 01:12:29 Yes
16 The Red Dirt Gang - OK 10233-AU21-FOYS BC C 1 09:33:54.50 178.435 01:12:29 Yes
18 Siegel's - LA 21393-AU21-A BB C 1 09:33:55.10 178.412 01:12:30 Yes
18 Corso & Jean - LA 81336-AU21-ARPU BC C 1 09:33:55.10 178.412 01:12:30 Yes
18 Dolly's Loft - TX 21774-AU21-CRES BB C 1 09:33:55.10 178.412 01:12:30 Yes
21 Rick Smith - TX 2162-AU21-SMIT BB C 1 09:33:55.50 178.397 01:12:30 Yes
21 Venn Family Loft - WY 11506-AU21-ARPU BB H 1 09:33:55.50 178.397 01:12:30 Yes
21 Hollywood Honey - CA 0718-AU21-SD BB C 1 09:33:55.50 178.397 01:12:30 Yes
24 Wartick Family Loft - KS 0217-AU21-AIR BSPL H 1 09:33:56.00 178.378 01:12:31 Yes
25 Gossett & Son - TX 0119-AU21-GOSS BB H 1 09:33:56.30 178.367 01:12:31 Yes
26 H & H Loft - TX 4352-AU21-VITA Don't Blink BWFP H 1 09:33:56.80 178.348 01:12:31 Yes
27 Crestview Loft - TX 21770-AU21-CRES BB H 1 09:33:56.90 178.344 01:12:32 Yes
28 Elton Dinga - TX 2323-AU21-UTEN Black Power 1905 x 12089 BB H 2 09:33:57.10 178.337 01:12:32 Yes
29 The Red Dirt Gang - OK 29646-AU21-FOYS BB H 2 09:33:57.60 178.318 01:12:32 Yes
29 Bill Kluge - TX 1111-AU21-COLD 8 BB C 1 09:33:57.60 178.318 01:12:32 Yes
31 Bad Company - OK 0129-AU21-TULS BB H 1 09:33:58.00 178.303 01:12:33 Yes
31 Sovereign Loft - TX 0101-AU21-SOV Trunnell Blood DGRZ H 1 09:33:58.00 178.303 01:12:33 Yes
33 Tex-Mex Loft - TX 1183-AU21-NSL Brujo or Bruja GRIZ C 1 09:33:58.40 178.288 01:12:33 Yes
34 The New Orleans Boys - LA 21125-AU21-MET HERCULES SLWF C 1 09:33:58.50 178.284 01:12:33 Yes
35 Callahan Loft - MO 0332-AU21-AA RC C 1 09:33:58.90 178.269 01:12:34 Yes
36 - 0083-AU21-TXLI 1 09:33:59.00 178.265 01:12:34
36 Patrick Kwan - CA 2191-AU21-KWAN BB C 1 09:33:59.00 178.265 01:12:34 Yes
37 R & D Racing 2 - ON 1844-AU21-AA BB H 1 09:33:59.30 178.254 01:12:34 Yes
38 Hi-Cal Connection - CA 0757-AU21-SD DC H 1 09:33:59.60 178.243 01:12:34 Yes
39 Bill Kluge - TX 1110-AU21-COLD 7 BB C 2 09:33:59.90 178.232 01:12:34 Yes
39 Brown & Evans - TX 0789-AU21-WF Barn Burner BB C 2 09:33:59.90 178.232 01:12:34 Yes
41 Brown & Evans - TX 0987-AU21-WF BBWF C 3 09:34:00.40 178.213 01:12:35 Yes
42 Malone's Loft - TX 0328-AU21-DENT Typhoon BB C 1 09:34:00.50 178.209 01:12:35 Yes
43 Patrick Kwan - CA 2177-AU21-KWAN DCPD H 2 09:34:00.80 178.198 01:12:35 Yes
43 Nestle Loft - TX 30248-AU21-AA BBPD H 2 09:34:00.80 178.198 01:12:35 Yes
45 H & H Loft - TX 4339-AU21-VITA BBWF C 2 09:34:00.90 178.194 01:12:36 Yes
46 Crestview Loft - TX 21773-AU21-CRES BB H 2 09:34:01.20 178.183 01:12:36 Yes
47 Baudy Loft - LA 21182-AU21-MET BB C 1 09:34:01.50 178.171 01:12:36 Yes
48 Ledet-Gutrz - LA 21551-AU21-LEDE BCSP H 3 09:34:01.60 178.168 01:12:36 Yes
49 Elton Dinga - TX 0374-AU21-DALL Wouters 715 x Jos 860 BB H 3 09:34:02.00 178.153 01:12:37 Yes
50 R & D Racing 2 - ON 20314-CU21-CU BC H 2 09:34:02.30 178.141 01:12:37 Yes
51 SouthernLegacyLoft - TX 2123-AU21-SLL BB C 1 09:34:02.60 178.130 01:12:37 Yes
52 R & D Racing 2 - ON 7523-CU21-CU CHWF H 3 09:34:02.90 178.119 01:12:37 Yes
52 C F L - LA 1075-AU21-CFL DC C 1 09:34:02.90 178.119 01:12:37 Yes
54 Hillbilly Loft - TX 2261-AU21-AA 37584 X 315 V/H-Houbin BCWF H 3 09:34:03.50 178.096 01:12:38 Yes
54 Tex-Mex Loft - TX 1182-AU21-NSL Los Muertos GRIZ H 2 09:34:03.50 178.096 01:12:38 Yes
56 R & D Racing 2 - ON 1884-AU21-AA BB C 4 09:34:03.90 178.081 01:12:39 Yes
57 Dolly's Loft - TX 21751-AU21-CRES BB C 2 09:34:04.20 178.070 01:12:39 Yes
58 Nemeth Family Loft - CA 0890-AU21-NEME BB H 1 09:34:04.60 178.055 01:12:39 Yes
59 Timberline Speed Loft - TX 81220-AU21-ARPU BB H 2 09:34:04.70 178.051 01:12:39 Missing
59 Dekeratry Loft - TX 0521-AU21-HOT SLWF C 1 09:34:04.70 178.051 01:12:39 Yes
61 Johnson / Perron - LA 0605-AU21-LAF BB C 1 09:34:05.10 178.036 01:12:40 Yes
61 Westfall/Lindsay - MO 0128-AU21-WMW WHT H 1 09:34:05.10 178.036 01:12:40 Yes
63 R & D Racing 2 - ON 1875-AU21-AA BWFP C 5 09:34:05.20 178.033 01:12:40 Yes
64 H & H Loft - TX 4301-AU21-VITA BB C 3 09:34:05.50 178.021 01:12:40 Yes
64 Nestle Loft - TX 30245-AU21-AA BWFP H 3 09:34:05.50 178.021 01:12:40 Yes
66 The New Orleans Boys - LA 21179-AU21-MET DC H 2 09:34:06.00 178.003 01:12:41 Yes
68 - 25665-AU21-AA 2 09:34:06.10 177.999 01:12:41
67 Any Given Day Loft - TX 21214-AU21-ANYG BB H 3 09:34:06.30 177.991 01:12:41 Yes
68 Blue Dog Express - TX 0461-AU21-DENT BB C 1 09:34:06.70 177.976 01:12:41 Yes
68 Jojos International - TX 6275-AU21-GJOJ BB C 1 09:34:06.70 177.976 01:12:41 Yes
68 B S B Loft - OK 10205-AU21-FOYS BC H 1 09:34:06.70 177.976 01:12:41 Yes
71 The Red Dirt Gang - OK 10202-AU21-FOYS BB H 3 09:34:06.80 177.973 01:12:41 Yes
71 Malone's Loft - TX 0329-AU21-DENT Warhawk BB C 2 09:34:06.80 177.973 01:12:41 Yes
73 Bad Company - OK 0144-AU21-TULS DBB C 2 09:34:07.20 177.958 01:12:42 Yes
73 Bad Company - OK 0124-AU21-TULS BC H 3 09:34:07.20 177.958 01:12:42 Yes
73 Ledet-Gutrz - LA 21550-AU21-LEDE BBWF H 4 09:34:07.20 177.958 01:12:42 Yes
76 Baudy Loft - LA 0136-AU21-DELT BCPD H 2 09:34:07.70 177.939 01:12:42 Yes
76 Any Given Day Loft - TX 21213-AU21-ANYG BBWF C 4 09:34:07.70 177.939 01:12:42 Yes
78 Gold Star Loft - FL 1881-AU21-STON BC H 1 09:34:07.80 177.935 01:12:42 Yes
79 Clear Springs Loft - FL 0130-AU21-WARD RC C 1 09:34:08.10 177.924 01:12:43 Yes
79 C.C.C. & Son - KS 2172-AU21-CCC BCWF C 1 09:34:08.10 177.924 01:12:43 Yes
81 Bad Company - OK 1096-AU21-CFL BB H 4 09:34:08.40 177.913 01:12:43 Yes
81 Jojos International - TX 6263-AU21-GJOJ BCWF H 2 09:34:08.40 177.913 01:12:43 Yes
83 Ledet-Gutrz - LA 21164-AU21-LEDE BC H 5 09:34:08.50 177.909 01:12:43 Yes
84 The Red Dirt Gang - OK 10201-AU21-FOYS BB C 4 09:34:08.70 177.901 01:12:43 Yes
85 Dolly's Loft - TX 21765-AU21-CRES BB C 3 09:34:08.80 177.898 01:12:43 Yes
86 Corso & Jean - LA 81356-AU21-ARPU BSLT H 2 09:34:09.20 177.883 01:12:44 Yes
87 Hi-Cal Connection - CA 0781-AU21-HICA BB C 2 09:34:09.30 177.879 01:12:44 Yes
88 Westfall/Lindsay - MO 21213-AU21-BOOT BB H 2 09:34:09.60 177.868 01:12:44 Yes
89 H & H Loft - TX 4347-AU21-VITA BB H 4 09:34:09.90 177.856 01:12:45 Yes
90 English Syndicate - UK 19457-GB21-E BB H 2 09:34:10.20 177.845 01:12:45 Yes
90 Mc Laughlin Lofts - MA 0242-AU21-MCLO BB H 1 09:34:10.20 177.845 01:12:45 Yes
92 Hillbilly Loft - TX 2267-AU21-AA be 743 x 374 yskout BC C 4 09:34:10.70 177.826 01:12:45 Yes
93 Brown & Evans - TX 0382-AU21-WF 1536 X 177 BB H 4 09:34:10.80 177.823 01:12:45 Yes
94 Team Taylor's & Berry's - TX 3088-AU21-TEXA BB H 1 09:34:11.10 177.811 01:12:46 Yes
95 Two-Be-Won - NV 21068-AU21-TBW 2907-434 BB C 1 09:34:11.40 177.800 01:12:46 Yes
96 Dan & Greg Coury - AZ 0730-AU21-AONE BC C 1 09:34:11.70 177.789 01:12:46 Yes
96 Rick Smith - TX 2159-AU21-SMIT BB C 2 09:34:11.70 177.789 01:12:46 Yes
98 Mc Laughlin Lofts - MA 0232-AU21-MCLO CHWF H 2 09:34:11.80 177.785 01:12:46 Yes

There are 335 bird records

Note: These Race Results are unofficial and subject to change until verified by the Race Committee and declared final.